createdAt,value
2023-02-24T00:02:34.000Z,-6.78
2023-02-24T00:07:35.000Z,-6.89
2023-02-24T00:12:35.000Z,-6.97
2023-02-24T00:17:34.000Z,-6.94
2023-02-24T00:22:35.000Z,-6.93
2023-02-24T00:27:34.000Z,-6.93
2023-02-24T00:32:35.000Z,-6.9
2023-02-24T00:37:34.000Z,-6.81
2023-02-24T00:47:35.000Z,-6.91
2023-02-24T00:52:34.000Z,-6.86
2023-02-24T00:57:35.000Z,-6.93
2023-02-24T01:02:34.000Z,-6.88
2023-02-24T01:07:35.000Z,-6.77
2023-02-24T01:12:35.000Z,-6.79
2023-02-24T01:17:36.000Z,-6.83
2023-02-24T01:22:34.000Z,-6.83
2023-02-24T01:27:35.000Z,-6.81
2023-02-24T01:32:35.000Z,-6.9
2023-02-24T01:37:35.000Z,-6.98
2023-02-24T01:42:35.000Z,-7.1
2023-02-24T01:47:35.000Z,-7.15
2023-02-24T01:52:34.000Z,-7.15
2023-02-24T02:02:35.000Z,-7.11
2023-02-24T02:07:34.000Z,-7.15
2023-02-24T02:12:35.000Z,-7.18
2023-02-24T02:17:35.000Z,-7.22
2023-02-24T02:22:35.000Z,-7.26
2023-02-24T02:27:34.000Z,-7.24
2023-02-24T02:32:35.000Z,-7.26
2023-02-24T02:37:34.000Z,-7.29
2023-02-24T02:42:34.000Z,-7.33
2023-02-24T02:47:34.000Z,-7.33
2023-02-24T02:52:34.000Z,-7.5
2023-02-24T02:57:35.000Z,-7.62
2023-02-24T03:02:34.000Z,-7.73
2023-02-24T03:07:35.000Z,-7.65
2023-02-24T03:12:35.000Z,-7.62
2023-02-24T03:17:35.000Z,-7.58
2023-02-24T03:22:35.000Z,-7.62
2023-02-24T03:27:35.000Z,-7.59
2023-02-24T03:32:35.000Z,-7.64
2023-02-24T03:37:35.000Z,-7.7
2023-02-24T03:42:34.000Z,-7.74
2023-02-24T03:47:35.000Z,-7.87
2023-02-24T03:52:35.000Z,-7.89
2023-02-24T03:57:35.000Z,-7.97
2023-02-24T04:02:34.000Z,-7.97
2023-02-24T04:07:35.000Z,-7.85
2023-02-24T04:12:35.000Z,-7.81
2023-02-24T04:17:35.000Z,-7.75
2023-02-24T04:22:35.000Z,-7.67
2023-02-24T04:27:35.000Z,-7.52
2023-02-24T04:32:35.000Z,-7.47
2023-02-24T04:37:35.000Z,-7.38
2023-02-24T04:42:34.000Z,-7.37
2023-02-24T04:47:35.000Z,-7.32
2023-02-24T04:52:34.000Z,-7.19
2023-02-24T04:57:35.000Z,-7.16
2023-02-24T05:02:34.000Z,-7.16
2023-02-24T05:07:34.000Z,-7.23
2023-02-24T05:12:35.000Z,-7.25
2023-02-24T05:17:34.000Z,-7.25
2023-02-24T05:22:35.000Z,-7.23
2023-02-24T05:32:35.000Z,-7.03
2023-02-24T05:37:34.000Z,-6.79
2023-02-24T05:42:35.000Z,-6.73
2023-02-24T05:47:34.000Z,-6.57
2023-02-24T05:52:35.000Z,-6.4
2023-02-24T05:57:35.000Z,-6.4
2023-02-24T06:02:35.000Z,-6.23
2023-02-24T06:07:35.000Z,-6.13
2023-02-24T06:12:35.000Z,-6.02
2023-02-24T06:17:35.000Z,-6.02
2023-02-24T06:22:35.000Z,-5.89
2023-02-24T06:27:35.000Z,-5.82
2023-02-24T06:32:35.000Z,-5.85
2023-02-24T06:37:35.000Z,-5.79
2023-02-24T06:42:35.000Z,-5.61
2023-02-24T06:47:35.000Z,-5.64
2023-02-24T06:52:35.000Z,-5.69
2023-02-24T06:57:35.000Z,-5.69
2023-02-24T07:02:35.000Z,-5.66
2023-02-24T07:07:35.000Z,-5.74
2023-02-24T07:12:35.000Z,-5.75
2023-02-24T07:17:34.000Z,-5.73
2023-02-24T07:22:35.000Z,-5.73
2023-02-24T07:27:34.000Z,-5.63
2023-02-24T07:32:35.000Z,-5.71
2023-02-24T07:37:35.000Z,-5.54
2023-02-24T07:42:35.000Z,-5.46
2023-02-24T07:47:35.000Z,-5.42
2023-02-24T07:52:34.000Z,-5.29
2023-02-24T07:57:35.000Z,-5.18
2023-02-24T08:02:34.000Z,-5.01
2023-02-24T08:07:35.000Z,-4.78
2023-02-24T08:12:34.000Z,-4.78
2023-02-24T08:17:35.000Z,-4.46
2023-02-24T08:22:34.000Z,-4.59
2023-02-24T08:27:35.000Z,-4.57
2023-02-24T08:32:35.000Z,-4.36
2023-02-24T08:37:34.000Z,-4.41
2023-02-24T08:42:34.000Z,-4.47
2023-02-24T08:47:35.000Z,-4.31
2023-02-24T08:52:35.000Z,-4.19
2023-02-24T08:57:35.000Z,-4.03
2023-02-24T09:02:34.000Z,-4.1
2023-02-24T09:07:35.000Z,-3.9
2023-02-24T09:12:35.000Z,-3.85
2023-02-24T09:17:35.000Z,-4.02
2023-02-24T09:22:35.000Z,-3.78
2023-02-24T09:27:35.000Z,-3.78
2023-02-24T09:32:35.000Z,-3.79
2023-02-24T09:37:35.000Z,-3.71
2023-02-24T09:42:35.000Z,-3.68
2023-02-24T09:52:35.000Z,-3.59
2023-02-24T09:57:34.000Z,-3.44
2023-02-24T10:02:35.000Z,-3.17
2023-02-24T10:07:34.000Z,-3.09
2023-02-24T10:12:35.000Z,-3.17
2023-02-24T10:17:35.000Z,-3.04
2023-02-24T10:22:35.000Z,-2.78
2023-02-24T10:27:35.000Z,-2.62
2023-02-24T10:32:35.000Z,-2.74
2023-02-24T10:42:34.000Z,-2.51
2023-02-24T10:47:35.000Z,-2.51
2023-02-24T10:52:34.000Z,-2.48
2023-02-24T10:57:35.000Z,-2.24
2023-02-24T11:02:35.000Z,-2.08
2023-02-24T11:07:35.000Z,-1.94
2023-02-24T11:12:35.000Z,-1.96
2023-02-24T11:17:34.000Z,-2.05
2023-02-24T11:22:35.000Z,-2.21
2023-02-24T11:27:35.000Z,-2.19
2023-02-24T11:32:35.000Z,-2.08
2023-02-24T11:37:35.000Z,-2.11
2023-02-24T11:42:34.000Z,-2.04
2023-02-24T11:47:35.000Z,-2.13
2023-02-24T11:52:34.000Z,-2.14
2023-02-24T11:57:35.000Z,-2.22
2023-02-24T12:02:35.000Z,-2.22
2023-02-24T12:07:35.000Z,-2.37
2023-02-24T12:12:35.000Z,-2.33
2023-02-24T12:17:35.000Z,-2.4
2023-02-24T12:22:35.000Z,-2.42
2023-02-24T12:27:34.000Z,-2.2
2023-02-24T12:32:34.000Z,-2.19
2023-02-24T12:37:34.000Z,-2.08
2023-02-24T12:42:35.000Z,-2.11
2023-02-24T12:47:35.000Z,-2.08
2023-02-24T12:52:35.000Z,-2.22
2023-02-24T12:57:35.000Z,-2.21
2023-02-24T13:02:35.000Z,-2.21
2023-02-24T13:07:34.000Z,-2.27
2023-02-24T13:12:35.000Z,-2.23
2023-02-24T13:17:34.000Z,-2.34
2023-02-24T13:22:34.000Z,-2.54
2023-02-24T13:27:35.000Z,-2.48
2023-02-24T13:32:35.000Z,-2.44
2023-02-24T13:37:34.000Z,-2.38
2023-02-24T13:42:35.000Z,-2.4
2023-02-24T13:47:34.000Z,-2.58
2023-02-24T13:52:35.000Z,-2.68
2023-02-24T13:57:35.000Z,-2.62
2023-02-24T14:02:34.000Z,-2.55
2023-02-24T14:07:35.000Z,-2.67
2023-02-24T14:17:35.000Z,-2.6
2023-02-24T14:27:35.000Z,-2.69
2023-02-24T14:32:35.000Z,-2.66
2023-02-24T14:37:35.000Z,-2.71
2023-02-24T14:42:35.000Z,-2.85
2023-02-24T14:47:34.000Z,-2.78
2023-02-24T14:52:35.000Z,-2.69
2023-02-24T14:57:35.000Z,-2.63
2023-02-24T15:02:35.000Z,-2.69
2023-02-24T15:07:34.000Z,-2.76
2023-02-24T15:12:35.000Z,-2.77
2023-02-24T15:17:34.000Z,-2.75
2023-02-24T15:22:35.000Z,-2.66
2023-02-24T15:27:34.000Z,-2.68
2023-02-24T15:32:35.000Z,-2.68
2023-02-24T15:37:34.000Z,-2.67
2023-02-24T15:42:35.000Z,-2.77
2023-02-24T15:47:35.000Z,-2.81
2023-02-24T15:52:34.000Z,-2.92
2023-02-24T15:57:35.000Z,-2.87
2023-02-24T16:02:35.000Z,-2.95
2023-02-24T16:07:35.000Z,-2.93
2023-02-24T16:12:35.000Z,-2.82
2023-02-24T16:17:35.000Z,-2.87
2023-02-24T16:22:35.000Z,-2.98
2023-02-24T16:27:35.000Z,-3
2023-02-24T16:32:35.000Z,-2.89
2023-02-24T16:37:34.000Z,-2.85
2023-02-24T16:42:35.000Z,-2.85
2023-02-24T16:47:34.000Z,-2.85
2023-02-24T16:52:35.000Z,-2.92
2023-02-24T16:57:34.000Z,-2.97
2023-02-24T17:02:35.000Z,-2.96
2023-02-24T17:07:34.000Z,-2.96
2023-02-24T17:12:34.000Z,-2.97
2023-02-24T17:17:35.000Z,-2.96
2023-02-24T17:22:35.000Z,-2.94
2023-02-24T17:27:35.000Z,-2.85
2023-02-24T17:32:35.000Z,-2.81
2023-02-24T17:37:35.000Z,-2.74
2023-02-24T17:42:35.000Z,-2.66
2023-02-24T17:47:35.000Z,-2.67
2023-02-24T17:52:35.000Z,-2.63
2023-02-24T17:57:34.000Z,-2.7
2023-02-24T18:02:35.000Z,-2.7
2023-02-24T18:07:34.000Z,-2.58
2023-02-24T18:12:35.000Z,-2.48
2023-02-24T18:17:34.000Z,-2.36
2023-02-24T18:22:35.000Z,-2.51
2023-02-24T18:27:34.000Z,-2.43
2023-02-24T18:32:35.000Z,-2.32
2023-02-24T18:37:35.000Z,-2.21
2023-02-24T18:42:35.000Z,-2.09
2023-02-24T18:47:34.000Z,-2.03
2023-02-24T18:52:35.000Z,-2.15
2023-02-24T18:57:34.000Z,-2.13
2023-02-24T19:02:35.000Z,-2.18
2023-02-24T19:12:34.000Z,-2.21
2023-02-24T19:17:35.000Z,-2.18
2023-02-24T19:22:35.000Z,-2.27
2023-02-24T19:27:35.000Z,-2.26
2023-02-24T19:32:35.000Z,-2.14
2023-02-24T19:37:34.000Z,-2.22
2023-02-24T19:42:35.000Z,-2.21
2023-02-24T19:47:35.000Z,-2.27
2023-02-24T19:52:35.000Z,-2.21
2023-02-24T19:57:34.000Z,-2.21
2023-02-24T20:02:35.000Z,-2.21
2023-02-24T20:07:34.000Z,-2.21
2023-02-24T20:12:35.000Z,-2.12
2023-02-24T20:17:35.000Z,-2.13
2023-02-24T20:22:35.000Z,-2.09
2023-02-24T20:27:34.000Z,-2.1
2023-02-24T20:32:35.000Z,-2.08
2023-02-24T20:37:35.000Z,-2.05
2023-02-24T20:42:35.000Z,-2.03
2023-02-24T20:47:35.000Z,-2.15
2023-02-24T20:52:34.000Z,-2.21
2023-02-24T20:57:35.000Z,-2.07
2023-02-24T21:02:34.000Z,-1.97
2023-02-24T21:07:35.000Z,-1.96
2023-02-24T21:12:35.000Z,-2
2023-02-24T21:17:35.000Z,-2
2023-02-24T21:22:35.000Z,-2.11
2023-02-24T21:27:34.000Z,-2.06
2023-02-24T21:32:35.000Z,-1.96
2023-02-24T21:37:35.000Z,-1.97
2023-02-24T21:42:35.000Z,-1.99
2023-02-24T21:47:35.000Z,-1.87
2023-02-24T21:52:34.000Z,-1.85
2023-02-24T21:57:35.000Z,-1.92
2023-02-24T22:02:34.000Z,-1.93
2023-02-24T22:07:35.000Z,-1.88
2023-02-24T22:12:35.000Z,-1.76
2023-02-24T22:17:34.000Z,-1.83
2023-02-24T22:22:35.000Z,-1.79
2023-02-24T22:27:34.000Z,-1.71
2023-02-24T22:32:35.000Z,-1.77
2023-02-24T22:37:34.000Z,-1.77
2023-02-24T22:42:34.000Z,-1.8
2023-02-24T22:47:35.000Z,-1.79
2023-02-24T22:52:35.000Z,-1.82
2023-02-24T22:57:35.000Z,-1.79
2023-02-24T23:02:34.000Z,-1.76
2023-02-24T23:07:35.000Z,-1.8
2023-02-24T23:12:35.000Z,-1.76
2023-02-24T23:17:34.000Z,-1.75
2023-02-24T23:22:35.000Z,-1.75
2023-02-24T23:27:35.000Z,-1.72
2023-02-24T23:37:35.000Z,-1.93
2023-02-24T23:42:34.000Z,-1.88
2023-02-24T23:47:35.000Z,-1.69
2023-02-24T23:52:34.000Z,-1.69
2023-02-24T23:57:35.000Z,-1.57
